De Beque, CO

2:13 PM MDT on September 30, 2016 (GMT -0600)
Rapid Creek Road | | Change Station

Elev 4980 ft 39.13 °N, 108.32 °W | Updated 5 minutes ago

Clear
Clear
69.8 °F
Feels Like 69.8 °F
N
4.0
Wind Variable Wind from SSW
Gusts 12.0 mph

Today
High -- | Low -- °F
--% Chance of Precip.
Yesterday
High -- | Low -- °F
Precip. -- in
Pressure 30.10 in
Visibility 10.0 miles
Clouds Clear
Dew Point 56 °F
Humidity 61%
Rainfall 0.05 in
Snow Depth Not available.
7:08 AM 6:56 PM
Waning Crescent, 0% visible
METAR KGJT 301953Z 24006KT 10SM CLR 20/12 A3024 RMK AO2 SLP193 T02000117
Pressure 30.10 in
Visibility 10.0 miles
Clouds Clear
Dew Point 56 °F
Humidity 61%
Rainfall 0.05 in
Snow Depth Not available.
7:08 AM 6:56 PM
Waning Crescent, 0% visible
METAR KGJT 301953Z 24006KT 10SM CLR 20/12 A3024 RMK AO2 SLP193 T02000117

10-Day Weather Forecast

Almanac

Astronomy

Sep. 30, 2016 Rise Set
Actual Time
Civil Twilight
Nautical Twilight
Astronomical Twilight
Moon
Length of Visible Light
Length of Day
Tomorrow will be .
, % of the Moon is Illuminated

Today's Extremes

State Highs State Lows

Community

WunderPhotos

Upload Photos

1,942,762 photos uploaded!

WunderBlog® & News

Nearby

Air Quality

  Air Quality AQ Index Pollutant
Not available.

Snow Depth

Station Depth Elevation

Earthquake Activity

City Distance Mag. Time & Date
Minimum magnitude displayed is 2.5.

Coastal Water Temperatures

Place Temperature

Stations

Nearby Weather Stations

Station Location Temp. Windchill Dew Point Humidity Wind Precip. Elev Updated Type
                   

Watches & Warnings

There are currently no watches in effect.